Wabek, North Dakota
Current Conditions -  °F | °C
As of 1:15 AM on Saturday 29 Nov 2014 (Local Time) from K08D Reporting Station
Overcast Overcast  
Wind Chill:   Ceiling: 9000
Heat Index: 16°   Visibility: 10mi
Dew Point: 16°   Wind: 7mph
Humidity: 100%   Direction: 330°NNW
Pressure: 29.38"   Gusts: NA
Location:  48.0227°N, 101.961°W
Report Text: K08D 290715Z AUTO 33006KT 10SM SCT070 BKN090 OVC110 M09/M09 A2938 RMK AO2
Loading
Personal Weather Stations






























Interactive Weather Map New forecast layout! Learn more

10-Day Weather Forecast

Advertisements
Track Severe Weather on mobile